sensor_id;sensor_type;location;lat;lon;timestamp;P1;durP1;ratioP1;P2;durP2;ratioP2
70071;SDS011;57434;42.794;23.302;2023-10-19T00:00:36;18.88;;;10.63;;
70071;SDS011;57434;42.794;23.302;2023-10-19T00:01:38;17.02;;;10.23;;
70071;SDS011;57434;42.794;23.302;2023-10-19T00:02:40;16.35;;;9.80;;
70071;SDS011;57434;42.794;23.302;2023-10-19T00:03:42;15.93;;;9.98;;
70071;SDS011;57434;42.794;23.302;2023-10-19T00:04:44;16.73;;;10.48;;
70071;SDS011;57434;42.794;23.302;2023-10-19T00:05:46;20.00;;;11.18;;
70071;SDS011;57434;42.794;23.302;2023-10-19T00:06:48;18.65;;;10.70;;
70071;SDS011;57434;42.794;23.302;2023-10-19T00:07:50;16.83;;;10.07;;
70071;SDS011;57434;42.794;23.302;2023-10-19T00:08:52;18.13;;;9.88;;
70071;SDS011;57434;42.794;23.302;2023-10-19T00:09:53;17.92;;;9.85;;
70071;SDS011;57434;42.794;23.302;2023-10-19T00:10:55;19.30;;;10.43;;
70071;SDS011;57434;42.794;23.302;2023-10-19T00:11:57;15.18;;;9.23;;
70071;SDS011;57434;42.794;23.302;2023-10-19T00:12:59;15.98;;;9.98;;
70071;SDS011;57434;42.794;23.302;2023-10-19T00:14:00;19.15;;;10.70;;
70071;SDS011;57434;42.794;23.302;2023-10-19T00:15:03;17.70;;;9.43;;
70071;SDS011;57434;42.794;23.302;2023-10-19T00:16:06;17.50;;;9.45;;
70071;SDS011;57434;42.794;23.302;2023-10-19T00:17:08;15.30;;;9.15;;
70071;SDS011;57434;42.794;23.302;2023-10-19T00:18:10;16.70;;;10.17;;
70071;SDS011;57434;42.794;23.302;2023-10-19T00:19:12;16.42;;;8.38;;
70071;SDS011;57434;42.794;23.302;2023-10-19T00:20:14;16.50;;;9.85;;
70071;SDS011;57434;42.794;23.302;2023-10-19T00:21:16;18.05;;;9.35;;
70071;SDS011;57434;42.794;23.302;2023-10-19T00:22:18;18.73;;;9.93;;
70071;SDS011;57434;42.794;23.302;2023-10-19T00:23:20;18.15;;;9.50;;
70071;SDS011;57434;42.794;23.302;2023-10-19T00:24:24;18.52;;;10.25;;
70071;SDS011;57434;42.794;23.302;2023-10-19T00:25:25;18.17;;;9.57;;
70071;SDS011;57434;42.794;23.302;2023-10-19T00:26:27;16.05;;;9.48;;
70071;SDS011;57434;42.794;23.302;2023-10-19T00:27:29;15.05;;;8.93;;
70071;SDS011;57434;42.794;23.302;2023-10-19T00:28:31;14.83;;;9.10;;
70071;SDS011;57434;42.794;23.302;2023-10-19T00:29:33;14.95;;;8.43;;
70071;SDS011;57434;42.794;23.302;2023-10-19T00:30:34;17.15;;;9.15;;
70071;SDS011;57434;42.794;23.302;2023-10-19T00:31:36;15.80;;;9.15;;
70071;SDS011;57434;42.794;23.302;2023-10-19T00:32:38;15.38;;;9.15;;
70071;SDS011;57434;42.794;23.302;2023-10-19T00:33:40;15.27;;;8.32;;
70071;SDS011;57434;42.794;23.302;2023-10-19T00:34:42;14.27;;;8.10;;
70071;SDS011;57434;42.794;23.302;2023-10-19T00:35:44;15.45;;;9.52;;
70071;SDS011;57434;42.794;23.302;2023-10-19T00:36:46;16.60;;;8.93;;
70071;SDS011;57434;42.794;23.302;2023-10-19T00:37:48;15.32;;;9.15;;
70071;SDS011;57434;42.794;23.302;2023-10-19T00:38:50;15.47;;;8.97;;
70071;SDS011;57434;42.794;23.302;2023-10-19T00:39:53;15.65;;;9.48;;
70071;SDS011;57434;42.794;23.302;2023-10-19T00:40:56;18.33;;;9.80;;
70071;SDS011;57434;42.794;23.302;2023-10-19T00:41:58;15.90;;;9.02;;
70071;SDS011;57434;42.794;23.302;2023-10-19T00:43:03;17.40;;;9.77;;
70071;SDS011;57434;42.794;23.302;2023-10-19T00:44:05;17.05;;;9.90;;
70071;SDS011;57434;42.794;23.302;2023-10-19T00:45:07;17.67;;;10.35;;
70071;SDS011;57434;42.794;23.302;2023-10-19T00:46:09;17.52;;;10.88;;
70071;SDS011;57434;42.794;23.302;2023-10-19T00:47:15;17.02;;;9.82;;
70071;SDS011;57434;42.794;23.302;2023-10-19T00:48:17;16.33;;;9.27;;
70071;SDS011;57434;42.794;23.302;2023-10-19T00:49:19;16.57;;;9.30;;
70071;SDS011;57434;42.794;23.302;2023-10-19T00:50:21;16.23;;;8.73;;
70071;SDS011;57434;42.794;23.302;2023-10-19T00:51:23;16.73;;;9.57;;
70071;SDS011;57434;42.794;23.302;2023-10-19T00:52:28;17.75;;;9.45;;
70071;SDS011;57434;42.794;23.302;2023-10-19T00:53:30;15.63;;;8.90;;
70071;SDS011;57434;42.794;23.302;2023-10-19T00:54:32;14.85;;;8.60;;
70071;SDS011;57434;42.794;23.302;2023-10-19T00:55:35;14.73;;;8.55;;
70071;SDS011;57434;42.794;23.302;2023-10-19T00:56:37;15.43;;;9.10;;
70071;SDS011;57434;42.794;23.302;2023-10-19T00:57:40;16.73;;;8.98;;
70071;SDS011;57434;42.794;23.302;2023-10-19T00:58:44;17.25;;;8.57;;
70071;SDS011;57434;42.794;23.302;2023-10-19T00:59:46;14.37;;;8.67;;
70071;SDS011;57434;42.794;23.302;2023-10-19T01:00:48;14.88;;;8.65;;
70071;SDS011;57434;42.794;23.302;2023-10-19T01:01:51;14.77;;;8.25;;
70071;SDS011;57434;42.794;23.302;2023-10-19T01:02:54;14.85;;;8.65;;
70071;SDS011;57434;42.794;23.302;2023-10-19T01:03:56;15.02;;;8.15;;
70071;SDS011;57434;42.794;23.302;2023-10-19T01:04:58;15.00;;;8.05;;
70071;SDS011;57434;42.794;23.302;2023-10-19T01:06:00;15.13;;;8.50;;
70071;SDS011;57434;42.794;23.302;2023-10-19T01:07:02;12.60;;;7.75;;
70071;SDS011;57434;42.794;23.302;2023-10-19T01:08:03;14.45;;;8.38;;
70071;SDS011;57434;42.794;23.302;2023-10-19T01:09:06;14.77;;;7.97;;
70071;SDS011;57434;42.794;23.302;2023-10-19T01:10:08;14.83;;;8.07;;
70071;SDS011;57434;42.794;23.302;2023-10-19T01:11:10;15.48;;;8.95;;
70071;SDS011;57434;42.794;23.302;2023-10-19T01:12:13;14.30;;;8.15;;
70071;SDS011;57434;42.794;23.302;2023-10-19T01:13:15;15.00;;;7.97;;
70071;SDS011;57434;42.794;23.302;2023-10-19T01:14:20;13.20;;;7.90;;
70071;SDS011;57434;42.794;23.302;2023-10-19T01:15:23;16.90;;;7.95;;
70071;SDS011;57434;42.794;23.302;2023-10-19T01:16:24;16.38;;;8.77;;
70071;SDS011;57434;42.794;23.302;2023-10-19T01:17:26;15.95;;;8.82;;
70071;SDS011;57434;42.794;23.302;2023-10-19T01:18:28;17.38;;;9.20;;
70071;SDS011;57434;42.794;23.302;2023-10-19T01:19:30;16.83;;;8.52;;
70071;SDS011;57434;42.794;23.302;2023-10-19T01:20:32;17.53;;;8.30;;
70071;SDS011;57434;42.794;23.302;2023-10-19T01:21:34;15.07;;;8.25;;
70071;SDS011;57434;42.794;23.302;2023-10-19T01:22:36;14.45;;;8.10;;
70071;SDS011;57434;42.794;23.302;2023-10-19T01:23:38;13.60;;;7.25;;
70071;SDS011;57434;42.794;23.302;2023-10-19T01:24:39;14.27;;;7.60;;
70071;SDS011;57434;42.794;23.302;2023-10-19T01:25:42;13.05;;;6.75;;
70071;SDS011;57434;42.794;23.302;2023-10-19T01:26:45;14.63;;;7.63;;
70071;SDS011;57434;42.794;23.302;2023-10-19T01:27:47;14.82;;;7.53;;
70071;SDS011;57434;42.794;23.302;2023-10-19T01:28:48;15.55;;;8.43;;
70071;SDS011;57434;42.794;23.302;2023-10-19T01:29:50;15.18;;;8.07;;
70071;SDS011;57434;42.794;23.302;2023-10-19T01:30:52;13.57;;;7.37;;
70071;SDS011;57434;42.794;23.302;2023-10-19T01:31:54;14.65;;;7.63;;
70071;SDS011;57434;42.794;23.302;2023-10-19T01:32:56;14.55;;;7.88;;
70071;SDS011;57434;42.794;23.302;2023-10-19T01:33:59;12.60;;;7.20;;
70071;SDS011;57434;42.794;23.302;2023-10-19T01:35:02;14.95;;;8.43;;
70071;SDS011;57434;42.794;23.302;2023-10-19T01:36:22;15.45;;;7.47;;
70071;SDS011;57434;42.794;23.302;2023-10-19T01:37:27;13.80;;;7.32;;
70071;SDS011;57434;42.794;23.302;2023-10-19T01:38:29;16.30;;;7.88;;
70071;SDS011;57434;42.794;23.302;2023-10-19T01:39:31;15.32;;;7.95;;
70071;SDS011;57434;42.794;23.302;2023-10-19T01:40:36;16.05;;;8.48;;
70071;SDS011;57434;42.794;23.302;2023-10-19T01:41:38;15.57;;;8.30;;
70071;SDS011;57434;42.794;23.302;2023-10-19T01:42:40;15.95;;;7.75;;
70071;SDS011;57434;42.794;23.302;2023-10-19T01:43:42;13.85;;;6.90;;
70071;SDS011;57434;42.794;23.302;2023-10-19T01:44:45;16.92;;;8.30;;
70071;SDS011;57434;42.794;23.302;2023-10-19T01:45:47;16.00;;;8.35;;
70071;SDS011;57434;42.794;23.302;2023-10-19T01:46:49;14.43;;;8.00;;
70071;SDS011;57434;42.794;23.302;2023-10-19T01:47:51;15.50;;;8.15;;
70071;SDS011;57434;42.794;23.302;2023-10-19T01:48:53;17.38;;;8.57;;
70071;SDS011;57434;42.794;23.302;2023-10-19T01:49:55;18.55;;;11.90;;
70071;SDS011;57434;42.794;23.302;2023-10-19T01:50:58;19.38;;;10.73;;
70071;SDS011;57434;42.794;23.302;2023-10-19T01:52:01;17.33;;;9.43;;
70071;SDS011;57434;42.794;23.302;2023-10-19T01:53:03;14.73;;;8.68;;
70071;SDS011;57434;42.794;23.302;2023-10-19T01:54:05;17.02;;;8.80;;
70071;SDS011;57434;42.794;23.302;2023-10-19T01:55:08;15.90;;;8.65;;
70071;SDS011;57434;42.794;23.302;2023-10-19T01:56:11;14.65;;;7.72;;
70071;SDS011;57434;42.794;23.302;2023-10-19T01:57:13;38.75;;;19.25;;
70071;SDS011;57434;42.794;23.302;2023-10-19T01:58:14;20.45;;;12.35;;
70071;SDS011;57434;42.794;23.302;2023-10-19T01:59:16;21.88;;;11.70;;
70071;SDS011;57434;42.794;23.302;2023-10-19T02:04:26;18.98;;;9.35;;
70071;SDS011;57434;42.794;23.302;2023-10-19T02:05:28;18.55;;;10.65;;
70071;SDS011;57434;42.794;23.302;2023-10-19T02:06:30;16.85;;;9.70;;
70071;SDS011;57434;42.794;23.302;2023-10-19T02:07:34;19.80;;;9.50;;
70071;SDS011;57434;42.794;23.302;2023-10-19T02:08:36;23.58;;;11.40;;
70071;SDS011;57434;42.794;23.302;2023-10-19T02:09:38;17.65;;;10.32;;
70071;SDS011;57434;42.794;23.302;2023-10-19T02:10:40;21.80;;;10.57;;
70071;SDS011;57434;42.794;23.302;2023-10-19T02:11:41;16.63;;;9.10;;
70071;SDS011;57434;42.794;23.302;2023-10-19T02:12:43;17.50;;;9.73;;
70071;SDS011;57434;42.794;23.302;2023-10-19T02:13:45;19.20;;;9.53;;
70071;SDS011;57434;42.794;23.302;2023-10-19T02:14:47;16.27;;;9.27;;
70071;SDS011;57434;42.794;23.302;2023-10-19T02:15:49;17.58;;;9.30;;
70071;SDS011;57434;42.794;23.302;2023-10-19T02:16:52;20.02;;;10.20;;
70071;SDS011;57434;42.794;23.302;2023-10-19T02:17:55;16.70;;;9.00;;
70071;SDS011;57434;42.794;23.302;2023-10-19T02:18:57;15.23;;;8.38;;
70071;SDS011;57434;42.794;23.302;2023-10-19T02:19:59;17.38;;;9.07;;
70071;SDS011;57434;42.794;23.302;2023-10-19T02:21:01;19.70;;;9.77;;
70071;SDS011;57434;42.794;23.302;2023-10-19T02:22:03;22.65;;;10.75;;
70071;SDS011;57434;42.794;23.302;2023-10-19T02:23:04;20.23;;;9.77;;
70071;SDS011;57434;42.794;23.302;2023-10-19T02:24:07;24.13;;;11.80;;
70071;SDS011;57434;42.794;23.302;2023-10-19T02:25:09;26.05;;;12.77;;
70071;SDS011;57434;42.794;23.302;2023-10-19T02:26:11;26.60;;;12.80;;
70071;SDS011;57434;42.794;23.302;2023-10-19T02:27:13;25.63;;;12.82;;
70071;SDS011;57434;42.794;23.302;2023-10-19T02:28:32;21.48;;;10.52;;
70071;SDS011;57434;42.794;23.302;2023-10-19T02:29:34;21.75;;;11.50;;
70071;SDS011;57434;42.794;23.302;2023-10-19T02:30:36;21.08;;;10.07;;
70071;SDS011;57434;42.794;23.302;2023-10-19T02:31:39;19.65;;;10.07;;
70071;SDS011;57434;42.794;23.302;2023-10-19T02:32:41;23.60;;;10.73;;
70071;SDS011;57434;42.794;23.302;2023-10-19T02:33:43;22.00;;;10.70;;
70071;SDS011;57434;42.794;23.302;2023-10-19T02:34:48;20.37;;;9.47;;
70071;SDS011;57434;42.794;23.302;2023-10-19T02:35:50;21.38;;;9.95;;
70071;SDS011;57434;42.794;23.302;2023-10-19T02:36:52;20.17;;;9.98;;
70071;SDS011;57434;42.794;23.302;2023-10-19T02:37:53;21.67;;;10.88;;
70071;SDS011;57434;42.794;23.302;2023-10-19T02:38:56;19.20;;;10.45;;
70071;SDS011;57434;42.794;23.302;2023-10-19T02:39:58;18.70;;;9.13;;
70071;SDS011;57434;42.794;23.302;2023-10-19T02:40:59;19.10;;;9.07;;
70071;SDS011;57434;42.794;23.302;2023-10-19T02:42:01;18.38;;;9.40;;
70071;SDS011;57434;42.794;23.302;2023-10-19T02:43:03;16.73;;;8.88;;
70071;SDS011;57434;42.794;23.302;2023-10-19T02:44:07;15.40;;;8.35;;
70071;SDS011;57434;42.794;23.302;2023-10-19T02:45:10;16.83;;;8.50;;
70071;SDS011;57434;42.794;23.302;2023-10-19T02:46:13;14.13;;;7.90;;
70071;SDS011;57434;42.794;23.302;2023-10-19T02:47:15;14.80;;;8.30;;
70071;SDS011;57434;42.794;23.302;2023-10-19T02:48:17;13.52;;;7.72;;
70071;SDS011;57434;42.794;23.302;2023-10-19T02:49:20;14.57;;;7.20;;
70071;SDS011;57434;42.794;23.302;2023-10-19T02:50:22;14.20;;;7.22;;
70071;SDS011;57434;42.794;23.302;2023-10-19T02:51:24;13.30;;;7.20;;
70071;SDS011;57434;42.794;23.302;2023-10-19T02:52:26;15.77;;;8.02;;
70071;SDS011;57434;42.794;23.302;2023-10-19T02:53:28;17.23;;;7.93;;
70071;SDS011;57434;42.794;23.302;2023-10-19T02:54:30;18.65;;;7.70;;
70071;SDS011;57434;42.794;23.302;2023-10-19T02:55:32;13.73;;;7.20;;
70071;SDS011;57434;42.794;23.302;2023-10-19T02:56:34;14.82;;;7.20;;
70071;SDS011;57434;42.794;23.302;2023-10-19T02:57:37;15.27;;;7.00;;
70071;SDS011;57434;42.794;23.302;2023-10-19T02:58:40;13.18;;;7.22;;
70071;SDS011;57434;42.794;23.302;2023-10-19T02:59:43;14.38;;;6.65;;
70071;SDS011;57434;42.794;23.302;2023-10-19T03:00:45;13.77;;;6.88;;
70071;SDS011;57434;42.794;23.302;2023-10-19T03:01:46;15.02;;;8.07;;
70071;SDS011;57434;42.794;23.302;2023-10-19T03:02:48;19.38;;;9.20;;
70071;SDS011;57434;42.794;23.302;2023-10-19T03:03:51;19.27;;;9.65;;
70071;SDS011;57434;42.794;23.302;2023-10-19T03:04:53;15.95;;;9.48;;
70071;SDS011;57434;42.794;23.302;2023-10-19T03:05:55;17.00;;;8.87;;
70071;SDS011;57434;42.794;23.302;2023-10-19T03:06:57;16.08;;;7.90;;
70071;SDS011;57434;42.794;23.302;2023-10-19T03:07:59;17.30;;;8.18;;
70071;SDS011;57434;42.794;23.302;2023-10-19T03:09:03;17.40;;;10.30;;
70071;SDS011;57434;42.794;23.302;2023-10-19T03:10:06;24.85;;;12.00;;
70071;SDS011;57434;42.794;23.302;2023-10-19T03:11:08;21.13;;;11.30;;
70071;SDS011;57434;42.794;23.302;2023-10-19T03:12:10;23.20;;;11.70;;
70071;SDS011;57434;42.794;23.302;2023-10-19T03:13:12;23.52;;;11.45;;
70071;SDS011;57434;42.794;23.302;2023-10-19T03:14:13;55.33;;;10.77;;
70071;SDS011;57434;42.794;23.302;2023-10-19T03:15:15;18.25;;;10.52;;
70071;SDS011;57434;42.794;23.302;2023-10-19T03:16:18;22.60;;;10.97;;
70071;SDS011;57434;42.794;23.302;2023-10-19T03:17:19;44.45;;;11.68;;
70071;SDS011;57434;42.794;23.302;2023-10-19T03:18:21;24.15;;;9.60;;
70071;SDS011;57434;42.794;23.302;2023-10-19T03:19:23;22.52;;;10.95;;
70071;SDS011;57434;42.794;23.302;2023-10-19T03:20:25;23.08;;;11.20;;
70071;SDS011;57434;42.794;23.302;2023-10-19T03:21:27;19.85;;;9.90;;
70071;SDS011;57434;42.794;23.302;2023-10-19T03:22:28;17.10;;;9.75;;
70071;SDS011;57434;42.794;23.302;2023-10-19T03:23:30;18.10;;;10.05;;
70071;SDS011;57434;42.794;23.302;2023-10-19T03:24:32;26.13;;;9.85;;
70071;SDS011;57434;42.794;23.302;2023-10-19T03:25:34;26.35;;;11.05;;
70071;SDS011;57434;42.794;23.302;2023-10-19T03:26:36;19.63;;;10.60;;
70071;SDS011;57434;42.794;23.302;2023-10-19T03:27:37;20.83;;;10.93;;
70071;SDS011;57434;42.794;23.302;2023-10-19T03:28:39;18.02;;;10.07;;
70071;SDS011;57434;42.794;23.302;2023-10-19T03:29:41;17.10;;;9.25;;
70071;SDS011;57434;42.794;23.302;2023-10-19T03:30:44;19.63;;;10.68;;
70071;SDS011;57434;42.794;23.302;2023-10-19T03:31:45;17.75;;;10.18;;
70071;SDS011;57434;42.794;23.302;2023-10-19T03:32:47;22.73;;;10.63;;
70071;SDS011;57434;42.794;23.302;2023-10-19T03:33:49;20.58;;;11.57;;
70071;SDS011;57434;42.794;23.302;2023-10-19T03:34:51;28.75;;;12.70;;
70071;SDS011;57434;42.794;23.302;2023-10-19T03:35:54;25.70;;;11.02;;
70071;SDS011;57434;42.794;23.302;2023-10-19T03:36:55;30.90;;;11.93;;
70071;SDS011;57434;42.794;23.302;2023-10-19T03:37:57;22.17;;;12.02;;
70071;SDS011;57434;42.794;23.302;2023-10-19T03:38:59;37.50;;;13.50;;
70071;SDS011;57434;42.794;23.302;2023-10-19T03:40:01;25.10;;;12.70;;
70071;SDS011;57434;42.794;23.302;2023-10-19T03:41:02;32.70;;;11.98;;
70071;SDS011;57434;42.794;23.302;2023-10-19T03:42:05;23.17;;;10.68;;
70071;SDS011;57434;42.794;23.302;2023-10-19T03:43:06;19.92;;;10.75;;
70071;SDS011;57434;42.794;23.302;2023-10-19T03:44:08;24.90;;;10.02;;
70071;SDS011;57434;42.794;23.302;2023-10-19T03:45:10;18.30;;;9.77;;
70071;SDS011;57434;42.794;23.302;2023-10-19T03:46:12;21.00;;;9.85;;
70071;SDS011;57434;42.794;23.302;2023-10-19T03:47:14;18.50;;;9.73;;
70071;SDS011;57434;42.794;23.302;2023-10-19T03:48:17;22.55;;;9.93;;
70071;SDS011;57434;42.794;23.302;2023-10-19T03:49:20;21.60;;;11.15;;
70071;SDS011;57434;42.794;23.302;2023-10-19T03:50:21;29.25;;;11.38;;
70071;SDS011;57434;42.794;23.302;2023-10-19T03:51:24;32.70;;;10.70;;
70071;SDS011;57434;42.794;23.302;2023-10-19T03:52:28;25.60;;;11.38;;
70071;SDS011;57434;42.794;23.302;2023-10-19T03:53:30;22.92;;;11.73;;
70071;SDS011;57434;42.794;23.302;2023-10-19T03:54:32;21.55;;;11.43;;
70071;SDS011;57434;42.794;23.302;2023-10-19T03:55:33;20.42;;;10.93;;
70071;SDS011;57434;42.794;23.302;2023-10-19T03:56:35;23.77;;;11.60;;
70071;SDS011;57434;42.794;23.302;2023-10-19T03:57:37;21.63;;;11.20;;
70071;SDS011;57434;42.794;23.302;2023-10-19T03:58:39;27.58;;;12.13;;
70071;SDS011;57434;42.794;23.302;2023-10-19T03:59:41;23.90;;;11.43;;
70071;SDS011;57434;42.794;23.302;2023-10-19T04:00:43;38.40;;;12.23;;
70071;SDS011;57434;42.794;23.302;2023-10-19T04:01:44;23.25;;;11.90;;
70071;SDS011;57434;42.794;23.302;2023-10-19T04:02:46;43.65;;;12.48;;
70071;SDS011;57434;42.794;23.302;2023-10-19T04:03:48;28.10;;;12.13;;
70071;SDS011;57434;42.794;23.302;2023-10-19T04:04:50;22.48;;;11.65;;
70071;SDS011;57434;42.794;23.302;2023-10-19T04:05:52;23.83;;;11.05;;
70071;SDS011;57434;42.794;23.302;2023-10-19T04:06:54;19.60;;;10.77;;
70071;SDS011;57434;42.794;23.302;2023-10-19T04:07:56;27.37;;;12.13;;
70071;SDS011;57434;42.794;23.302;2023-10-19T04:08:58;22.45;;;11.32;;
70071;SDS011;57434;42.794;23.302;2023-10-19T04:10:00;22.95;;;10.98;;
70071;SDS011;57434;42.794;23.302;2023-10-19T04:11:02;21.30;;;11.40;;
70071;SDS011;57434;42.794;23.302;2023-10-19T04:12:03;30.58;;;14.63;;
70071;SDS011;57434;42.794;23.302;2023-10-19T04:13:05;37.13;;;15.85;;
70071;SDS011;57434;42.794;23.302;2023-10-19T04:14:07;41.03;;;15.73;;
70071;SDS011;57434;42.794;23.302;2023-10-19T04:15:09;24.80;;;12.68;;
70071;SDS011;57434;42.794;23.302;2023-10-19T04:16:11;24.25;;;12.40;;
70071;SDS011;57434;42.794;23.302;2023-10-19T04:17:13;25.05;;;12.30;;
70071;SDS011;57434;42.794;23.302;2023-10-19T04:18:15;24.47;;;12.50;;
70071;SDS011;57434;42.794;23.302;2023-10-19T04:19:17;29.52;;;11.77;;
70071;SDS011;57434;42.794;23.302;2023-10-19T04:20:18;38.70;;;12.05;;
70071;SDS011;57434;42.794;23.302;2023-10-19T04:21:20;39.15;;;11.35;;
70071;SDS011;57434;42.794;23.302;2023-10-19T04:22:22;57.58;;;11.55;;
70071;SDS011;57434;42.794;23.302;2023-10-19T04:23:24;31.65;;;11.55;;
70071;SDS011;57434;42.794;23.302;2023-10-19T04:24:27;27.70;;;11.10;;
70071;SDS011;57434;42.794;23.302;2023-10-19T04:25:28;30.77;;;10.60;;
70071;SDS011;57434;42.794;23.302;2023-10-19T04:26:31;43.13;;;13.80;;
70071;SDS011;57434;42.794;23.302;2023-10-19T04:27:33;48.42;;;15.60;;
70071;SDS011;57434;42.794;23.302;2023-10-19T04:28:35;30.40;;;10.97;;
70071;SDS011;57434;42.794;23.302;2023-10-19T04:29:36;30.83;;;10.40;;
70071;SDS011;57434;42.794;23.302;2023-10-19T04:30:38;40.97;;;10.18;;
70071;SDS011;57434;42.794;23.302;2023-10-19T04:31:40;30.80;;;9.57;;
70071;SDS011;57434;42.794;23.302;2023-10-19T04:32:43;33.45;;;9.90;;
70071;SDS011;57434;42.794;23.302;2023-10-19T04:33:45;44.58;;;10.25;;
70071;SDS011;57434;42.794;23.302;2023-10-19T04:34:47;33.08;;;9.43;;
70071;SDS011;57434;42.794;23.302;2023-10-19T04:35:49;22.15;;;9.23;;
70071;SDS011;57434;42.794;23.302;2023-10-19T04:36:51;36.08;;;9.27;;
70071;SDS011;57434;42.794;23.302;2023-10-19T04:37:53;39.90;;;9.15;;
70071;SDS011;57434;42.794;23.302;2023-10-19T04:38:55;23.53;;;8.30;;
70071;SDS011;57434;42.794;23.302;2023-10-19T04:39:57;19.27;;;9.02;;
70071;SDS011;57434;42.794;23.302;2023-10-19T04:41:08;18.95;;;9.18;;
70071;SDS011;57434;42.794;23.302;2023-10-19T04:42:11;19.52;;;8.18;;
70071;SDS011;57434;42.794;23.302;2023-10-19T04:43:13;15.98;;;8.63;;
70071;SDS011;57434;42.794;23.302;2023-10-19T04:44:15;15.15;;;7.57;;
70071;SDS011;57434;42.794;23.302;2023-10-19T04:45:17;18.23;;;8.90;;
70071;SDS011;57434;42.794;23.302;2023-10-19T04:46:19;18.30;;;8.05;;
70071;SDS011;57434;42.794;23.302;2023-10-19T04:47:20;16.77;;;9.15;;
70071;SDS011;57434;42.794;23.302;2023-10-19T04:48:25;24.38;;;8.70;;
70071;SDS011;57434;42.794;23.302;2023-10-19T04:49:27;15.33;;;8.30;;
70071;SDS011;57434;42.794;23.302;2023-10-19T04:50:29;15.82;;;7.25;;
70071;SDS011;57434;42.794;23.302;2023-10-19T04:51:31;17.98;;;9.00;;
70071;SDS011;57434;42.794;23.302;2023-10-19T04:52:33;29.45;;;11.38;;
70071;SDS011;57434;42.794;23.302;2023-10-19T04:53:35;25.10;;;10.65;;
70071;SDS011;57434;42.794;23.302;2023-10-19T04:54:37;18.60;;;9.50;;
70071;SDS011;57434;42.794;23.302;2023-10-19T04:55:39;21.60;;;9.18;;
70071;SDS011;57434;42.794;23.302;2023-10-19T04:56:40;26.02;;;9.20;;
70071;SDS011;57434;42.794;23.302;2023-10-19T04:57:42;22.98;;;9.30;;
70071;SDS011;57434;42.794;23.302;2023-10-19T04:58:44;20.45;;;8.10;;
70071;SDS011;57434;42.794;23.302;2023-10-19T04:59:47;35.33;;;8.90;;
70071;SDS011;57434;42.794;23.302;2023-10-19T05:00:49;22.23;;;7.97;;
70071;SDS011;57434;42.794;23.302;2023-10-19T05:01:51;17.15;;;8.13;;
70071;SDS011;57434;42.794;23.302;2023-10-19T05:02:53;28.63;;;8.90;;
70071;SDS011;57434;42.794;23.302;2023-10-19T05:03:54;20.92;;;9.07;;
70071;SDS011;57434;42.794;23.302;2023-10-19T05:04:56;18.30;;;8.43;;
70071;SDS011;57434;42.794;23.302;2023-10-19T05:05:58;27.77;;;8.30;;
70071;SDS011;57434;42.794;23.302;2023-10-19T05:07:00;17.63;;;8.05;;
70071;SDS011;57434;42.794;23.302;2023-10-19T05:08:02;34.00;;;9.02;;
70071;SDS011;57434;42.794;23.302;2023-10-19T05:09:03;24.45;;;7.78;;
70071;SDS011;57434;42.794;23.302;2023-10-19T05:10:05;22.30;;;8.80;;
70071;SDS011;57434;42.794;23.302;2023-10-19T05:11:07;33.92;;;9.55;;
70071;SDS011;57434;42.794;23.302;2023-10-19T05:12:09;24.65;;;11.07;;
70071;SDS011;57434;42.794;23.302;2023-10-19T05:13:11;26.48;;;9.63;;
70071;SDS011;57434;42.794;23.302;2023-10-19T05:14:13;37.75;;;9.40;;
70071;SDS011;57434;42.794;23.302;2023-10-19T05:58:04;30.23;;;16.65;;
70071;SDS011;57434;42.794;23.302;2023-10-19T05:59:05;30.17;;;16.10;;
70071;SDS011;57434;42.794;23.302;2023-10-19T06:00:11;26.95;;;15.63;;
70071;SDS011;57434;42.794;23.302;2023-10-19T06:01:13;22.33;;;13.70;;
70071;SDS011;57434;42.794;23.302;2023-10-19T06:02:15;25.55;;;14.88;;
70071;SDS011;57434;42.794;23.302;2023-10-19T06:03:17;29.42;;;15.52;;
70071;SDS011;57434;42.794;23.302;2023-10-19T06:04:18;23.38;;;11.90;;
70071;SDS011;57434;42.794;23.302;2023-10-19T06:05:22;25.65;;;13.80;;
70071;SDS011;57434;42.794;23.302;2023-10-19T06:06:24;25.52;;;14.02;;
70071;SDS011;57434;42.794;23.302;2023-10-19T06:07:25;26.30;;;14.82;;
70071;SDS011;57434;42.794;23.302;2023-10-19T06:08:28;28.13;;;14.77;;
70071;SDS011;57434;42.794;23.302;2023-10-19T06:09:30;34.72;;;15.30;;
70071;SDS011;57434;42.794;23.302;2023-10-19T06:10:32;22.30;;;12.90;;
70071;SDS011;57434;42.794;23.302;2023-10-19T06:11:33;26.40;;;13.83;;
70071;SDS011;57434;42.794;23.302;2023-10-19T06:12:35;25.48;;;15.07;;
70071;SDS011;57434;42.794;23.302;2023-10-19T06:13:37;26.65;;;15.82;;
70071;SDS011;57434;42.794;23.302;2023-10-19T06:14:39;27.27;;;15.60;;
70071;SDS011;57434;42.794;23.302;2023-10-19T06:15:41;28.45;;;12.32;;
70071;SDS011;57434;42.794;23.302;2023-10-19T06:16:42;19.13;;;11.48;;
70071;SDS011;57434;42.794;23.302;2023-10-19T06:17:44;22.35;;;12.30;;
70071;SDS011;57434;42.794;23.302;2023-10-19T06:18:47;20.17;;;11.93;;
70071;SDS011;57434;42.794;23.302;2023-10-19T06:19:49;17.92;;;10.60;;
70071;SDS011;57434;42.794;23.302;2023-10-19T06:20:51;18.95;;;10.85;;
70071;SDS011;57434;42.794;23.302;2023-10-19T06:21:53;21.50;;;11.37;;
70071;SDS011;57434;42.794;23.302;2023-10-19T06:22:55;19.48;;;10.93;;
70071;SDS011;57434;42.794;23.302;2023-10-19T06:23:58;18.88;;;11.50;;
70071;SDS011;57434;42.794;23.302;2023-10-19T06:25:00;20.55;;;11.73;;
70071;SDS011;57434;42.794;23.302;2023-10-19T06:26:12;20.30;;;11.73;;
70071;SDS011;57434;42.794;23.302;2023-10-19T06:27:14;22.13;;;11.57;;
70071;SDS011;57434;42.794;23.302;2023-10-19T06:28:16;20.55;;;12.15;;
70071;SDS011;57434;42.794;23.302;2023-10-19T06:29:17;19.88;;;10.95;;
70071;SDS011;57434;42.794;23.302;2023-10-19T06:30:19;22.25;;;12.38;;
70071;SDS011;57434;42.794;23.302;2023-10-19T06:31:21;22.92;;;11.73;;
70071;SDS011;57434;42.794;23.302;2023-10-19T06:32:23;20.30;;;10.73;;
70071;SDS011;57434;42.794;23.302;2023-10-19T06:33:25;19.67;;;11.10;;
70071;SDS011;57434;42.794;23.302;2023-10-19T06:34:26;20.10;;;10.48;;
70071;SDS011;57434;42.794;23.302;2023-10-19T06:35:29;17.77;;;10.00;;
70071;SDS011;57434;42.794;23.302;2023-10-19T06:36:32;16.45;;;9.50;;
70071;SDS011;57434;42.794;23.302;2023-10-19T06:37:33;18.42;;;10.55;;
70071;SDS011;57434;42.794;23.302;2023-10-19T06:38:35;18.00;;;10.32;;
70071;SDS011;57434;42.794;23.302;2023-10-19T06:39:37;17.25;;;9.73;;
70071;SDS011;57434;42.794;23.302;2023-10-19T06:40:39;16.38;;;9.55;;
70071;SDS011;57434;42.794;23.302;2023-10-19T06:41:41;16.40;;;9.38;;
70071;SDS011;57434;42.794;23.302;2023-10-19T06:42:43;18.10;;;10.73;;
70071;SDS011;57434;42.794;23.302;2023-10-19T06:43:46;16.55;;;9.70;;
70071;SDS011;57434;42.794;23.302;2023-10-19T06:44:48;17.80;;;9.80;;
70071;SDS011;57434;42.794;23.302;2023-10-19T06:45:50;17.95;;;10.07;;
70071;SDS011;57434;42.794;23.302;2023-10-19T06:46:51;18.10;;;9.75;;
70071;SDS011;57434;42.794;23.302;2023-10-19T06:47:53;19.08;;;10.13;;
70071;SDS011;57434;42.794;23.302;2023-10-19T06:48:55;17.30;;;10.25;;